Rices Mills, Vermont
Current Conditions -  °F | °C
As of 6:53 PM on Sunday 25 Jan 2015 (Local Time) from KLEB Reporting Station
Clear Clear  
Wind Chill:   Ceiling: Unl
Heat Index: 16°   Visibility: 10mi
Dew Point:   Wind: 7mph
Humidity: 52%   Direction: 350°N
Pressure: 29.91"   Gusts: NA
Location:  43.8204°N, 72.274°W
Report Text: KLEB 252353Z 35006KT 10SM CLR M09/M17 A2991 RMK AO2 SLP139 T10891172 11044 21094 52044
Loading
Personal Weather Stations






























Interactive Weather Map New forecast layout! Learn more

10-Day Weather Forecast

Advertisements
Track Severe Weather on mobile